• Join FlightAware (Why Join?)
  • Login
  • US Flag GB Flag 
18:01 EDT


 

Airport Tracker/Info


-or-


 

Live Flight TrackerFlight Track Log ✈ ASQ4356 ✈ 14-Jul-2013 ✈ KIAH - KMAF

Flight Track Log - Related Links

Times and Time Zones

All times are in EDT time to prevent confusion due to time zone crossing. See the ASQ4356 flight status page for this flight to view local times or setup timezone preferences in your user account.

Time Position Orientation Groundspeed Altitude Reporting Facility
EDT Latitude Longitude Course Direction KTS MPH feet Rate Location/Type
20:55 29.9547 -95.3372 207° Southwest 168 193 800  Level Houston Center
20:55 29.9303 -95.2992 127° Southeast 207 238 1,800 1,620 Climbing Houston Center
20:57 29.8692 -95.2319 136° Southeast 254 292 4,400 1,560 Climbing Houston Center
20:58 29.6173 -95.5392 209° Southwest  Level FlightAware Approximate
20:58 29.7856 -95.2383 184° South 251 289 5,800  Level Houston Center
20:59 29.5259 -95.5912 206° Southwest  Level FlightAware Approximate
20:59 29.7114 -95.2458 185° South 265 305 7,900  Level Houston Center
21:00 29.4343 -95.6423 207° Southwest  Level FlightAware Approximate
21:00 29.6372 -95.2544 186° South 271 312 9,800  Level Houston Center
21:01 29.5561 -95.2597 183° South 299 344 10,900 1,020 Climbing Houston Center
21:02 29.4656 -95.2669 184° South 323 372 12,000 1,140 Climbing Houston Center
21:03 29.3511 -95.2731 183° South 340 391 13,300 1,140 Climbing Houston Center
21:04 29.2544 -95.3072 197° South 365 420 14,400 1,020 Climbing Houston Center
21:05 29.1622 -95.3539 204° Southwest 364 419 15,500 1,020 Climbing Houston Center
21:06 29.0681 -95.3983 202° Southwest 365 420 16,600 1,020 Climbing Houston Center
21:07 28.9736 -95.4447 203° Southwest 368 423 17,700 1,260 Climbing Houston Center
21:08 28.8781 -95.4919 203° Southwest 373 429 19,200 1,500 Climbing Houston Center
21:09 28.7847 -95.5350 202° Southwest 364 419 20,800 1,800 Climbing Houston Center
21:10 28.6964 -95.5742 201° Southwest 347 399 23,000 1,860 Climbing Houston Center
21:11 28.6233 -95.6200 209° Southwest 309 356 24,600 1,260 Climbing Houston Center
21:12 28.5731 -95.7200 240° Southwest 306 352 25,700 1,020 Climbing Houston Center
21:13 28.5314 -95.8056 241° Southwest 308 354 26,800 960 Climbing Houston Center
21:14 28.4897 -95.8939 242° Southwest 315 362 27,700 540 Climbing Houston Center
21:15 28.4431 -95.9894 241° Southwest 334 384 28,000 540 Climbing Houston Center
21:16 28.3956 -96.0928 242° Southwest 366 421 28,900 960 Climbing Houston Center
21:17 28.3669 -96.1969 253° West 352 405 30,000 780 Climbing Houston Center
21:18 28.4103 -96.2939 297° West 352 405 30,600 900 Climbing Houston Center
21:19 28.4669 -96.3828 306° West 349 402 31,900 660 Climbing Houston Center
21:20 28.5233 -96.4717 306° West 346 398 32,000  Climbing Houston Center
21:21 28.5867 -96.5681 307° West 367 422 32,000  Level Houston Center
21:22 28.6525 -96.6725 306° West 395 455 32,000  Level Houston Center
21:23 28.7356 -96.8042 306° West 418 481 32,000 -60 Level Houston Center
21:24 28.8064 -96.9150 306° West 428 493 31,900  Descending Houston Center
21:25 28.8764 -97.0269 306° West 431 496 32,000  Climbing Houston Center
21:26 28.9467 -97.1383 306° West 430 495 32,000  Level Houston Center
21:27 29.0183 -97.2519 306° West 434 499 32,000  Level Houston Center
21:29 29.0894 -97.3661 305° West 436 502 32,000  Level Houston Center
21:30 29.1600 -97.4792 306° West 436 502 32,000  Level Houston Center
21:31 29.2319 -97.5917 306° West 435 501 32,000  Level Houston Center
21:32 29.3017 -97.7053 305° West 436 502 32,000  Level Houston Center
21:33 29.3817 -97.8333 306° West 434 499 32,000  Level Houston Center
21:34 29.4506 -97.9461 305° West 433 498 32,000  Level Houston Center
21:35 29.5203 -98.0575 306° West 430 495 32,000  Level Houston Center
21:36 29.5939 -98.1778 305° West 429 494 32,000  Level Houston Center
21:37 29.6628 -98.2894 305° West 430 495 32,000  Level Houston Center
21:38 29.7319 -98.4006 306° West 431 496 32,000  Level Houston Center
21:39 29.8036 -98.5197 305° West 424 488 32,000  Level Houston Center
21:40 29.8700 -98.6311 305° West 423 487 32,000  Level Houston Center
21:41 29.9369 -98.7419 305° West 423 487 32,000  Level Houston Center
21:42 30.0094 -98.8614 305° West 423 487 32,000  Level Houston Center
21:43 30.0761 -98.9725 305° West 422 486 32,000  Level Houston Center
21:44 30.1442 -99.0836 305° West 423 487 32,000  Level Houston Center
21:45 30.2033 -99.1839 304° West 425 489 32,000 -60 Level Houston Center
21:46 30.2706 -99.2972 304° West 428 493 31,900  Descending Houston Center
21:47 30.3533 -99.4317 306° West 431 496 32,000  Climbing Houston Center
21:48 30.4192 -99.5444 304° West 427 491 32,000  Level Houston Center
21:49 30.4853 -99.6572 304° West 426 490 32,000  Level Houston Center
21:50 30.5508 -99.7683 304° West 423 487 32,000  Level Houston Center
21:51 30.6181 -99.8814 305° West 430 495 32,000  Level Houston Center
21:52 30.6850 -99.9944 305° West 433 498 32,000 -840 Level Houston Center
21:53 30.7508 -100.1075 304° West 427 491 30,400 -2,040 Descending Houston Center
21:54 30.8161 -100.2172 305° West 419 482 27,900 -2,400 Descending Houston Center
21:55 30.8811 -100.3319 303° West 422 486 25,600 -2,520 Descending Houston Center
21:56 30.9600 -100.4675 304° West 429 494 22,800 -1,800 Descending Houston Center
21:57 31.0222 -100.5722 305° West 401 461 22,000 -420 Descending Houston Center
21:58 31.0842 -100.6842 303° West 412 474 22,000  Level Houston Center
21:59 31.1481 -100.7892 305° West 403 464 22,000  Level Houston Center
22:00 31.2097 -100.8983 303° West 402 463 22,000 -120 Level Houston Center
22:01 31.2722 -101.0089 304° West 411 473 21,800 -600 Descending Houston Center
22:02 31.3394 -101.1189 306° West 401 461 20,800 -1,020 Descending Houston Center
22:03 31.4011 -101.2283 303° West 404 465 19,800 -1,020 Descending Houston Center
22:04 31.4353 -101.2917 302° West 401 461 19,200 -1,020 Descending Fort Worth Center
22:05 31.4967 -101.3967 304° West 401 461 18,200 -1,020 Descending Fort Worth Center
22:06 31.5347 -101.5103 291° West 393 452 17,200 -1,200 Descending Fort Worth Center
22:07 31.5728 -101.6267 291° West 381 438 15,900 -1,440 Descending Fort Worth Center
22:08 31.6106 -101.7406 291° West 381 438 14,400 -1,680 Descending Fort Worth Center
22:09 31.6467 -101.8472 292° West 368 423 12,600 -1,800 Descending Fort Worth Center
22:10 31.6828 -101.9442 294° West 349 402 10,900 -1,500 Descending Fort Worth Center
22:11 31.7172 -102.0336 294° West 322 371 9,700 -1,440 Descending Fort Worth Center
22:12 31.7453 -102.1156 292° West 294 338 8,100 -1,620 Descending Fort Worth Center
22:13 31.7778 -102.1981 295° West 284 327 6,500 -1,560 Descending Fort Worth Center
22:14 31.8081 -102.2778 294° West 278 320 5,000 -840 Descending Fort Worth Center
22:15 31.8589 -102.3147 328° Northwest 233 268 4,900 -120 Descending Fort Worth Center